Lewiston, Nebraska
Current Conditions -  °F | °C
As of 4:55 AM on Friday 21 Nov 2014 (Local Time) from KBIE Reporting Station
Clear Clear  
Wind Chill: 20°   Ceiling: Unl
Heat Index: 20°   Visibility: 10mi
Dew Point: 16°   Wind: 3mph
Humidity: 83%   Direction: 120°ESE
Pressure: 30.19"   Gusts: NA
Location:  40.24°N, 96.4°W
Report Text: KBIE 211055Z AUTO 12003KT 10SM CLR M07/M09 A3019 RMK AO2 T10661090
Loading
Personal Weather Stations






























Interactive Weather Map New forecast layout! Learn more

10-Day Weather Forecast

Advertisements
Track Severe Weather on mobile